sensor_id;sensor_type;location;lat;lon;timestamp;P1;durP1;ratioP1;P2;durP2;ratioP2
40695;SDS011;40425;51.102;17.208;2023-02-03T00:01:17;18.53;;;5.97;;
40695;SDS011;40425;51.102;17.208;2023-02-03T00:06:18;18.43;;;7.80;;
40695;SDS011;40425;51.102;17.208;2023-02-03T00:11:20;14.87;;;6.03;;
40695;SDS011;40425;51.102;17.208;2023-02-03T00:16:21;15.07;;;6.47;;
40695;SDS011;40425;51.102;17.208;2023-02-03T00:21:22;18.40;;;7.33;;
40695;SDS011;40425;51.102;17.208;2023-02-03T00:26:22;15.80;;;6.80;;
40695;SDS011;40425;51.102;17.208;2023-02-03T00:31:25;19.37;;;8.47;;
40695;SDS011;40425;51.102;17.208;2023-02-03T00:36:26;23.63;;;8.97;;
40695;SDS011;40425;51.102;17.208;2023-02-03T00:41:28;22.80;;;8.47;;
40695;SDS011;40425;51.102;17.208;2023-02-03T00:46:33;15.27;;;6.80;;
40695;SDS011;40425;51.102;17.208;2023-02-03T00:51:35;19.67;;;7.70;;
40695;SDS011;40425;51.102;17.208;2023-02-03T00:56:36;15.27;;;7.57;;
40695;SDS011;40425;51.102;17.208;2023-02-03T01:01:36;22.33;;;7.07;;
40695;SDS011;40425;51.102;17.208;2023-02-03T01:06:38;18.43;;;7.43;;
40695;SDS011;40425;51.102;17.208;2023-02-03T01:11:40;22.47;;;8.67;;
40695;SDS011;40425;51.102;17.208;2023-02-03T01:16:41;17.57;;;7.73;;
40695;SDS011;40425;51.102;17.208;2023-02-03T01:21:42;17.13;;;7.63;;
40695;SDS011;40425;51.102;17.208;2023-02-03T01:26:43;18.70;;;7.87;;
40695;SDS011;40425;51.102;17.208;2023-02-03T01:31:43;18.73;;;9.83;;
40695;SDS011;40425;51.102;17.208;2023-02-03T01:36:44;16.63;;;8.27;;
40695;SDS011;40425;51.102;17.208;2023-02-03T01:41:45;23.07;;;9.17;;
40695;SDS011;40425;51.102;17.208;2023-02-03T01:46:47;26.37;;;10.63;;
40695;SDS011;40425;51.102;17.208;2023-02-03T01:51:50;19.23;;;8.13;;
40695;SDS011;40425;51.102;17.208;2023-02-03T01:56:57;20.00;;;8.00;;
40695;SDS011;40425;51.102;17.208;2023-02-03T02:02:00;16.90;;;8.27;;
40695;SDS011;40425;51.102;17.208;2023-02-03T02:07:03;18.63;;;8.40;;
40695;SDS011;40425;51.102;17.208;2023-02-03T02:12:07;16.83;;;8.73;;
40695;SDS011;40425;51.102;17.208;2023-02-03T02:17:13;19.77;;;8.77;;
40695;SDS011;40425;51.102;17.208;2023-02-03T02:28:31;21.90;;;9.93;;
40695;SDS011;40425;51.102;17.208;2023-02-03T02:54:36;14.33;;;6.83;;
40695;SDS011;40425;51.102;17.208;2023-02-03T02:59:41;13.77;;;6.83;;
40695;SDS011;40425;51.102;17.208;2023-02-03T03:04:42;17.90;;;6.30;;
40695;SDS011;40425;51.102;17.208;2023-02-03T03:09:51;11.93;;;4.47;;
40695;SDS011;40425;51.102;17.208;2023-02-03T03:15:11;8.93;;;4.63;;
40695;SDS011;40425;51.102;17.208;2023-02-03T03:20:19;11.03;;;4.77;;
40695;SDS011;40425;51.102;17.208;2023-02-03T03:25:25;14.33;;;5.37;;
40695;SDS011;40425;51.102;17.208;2023-02-03T03:30:33;14.30;;;4.97;;
40695;SDS011;40425;51.102;17.208;2023-02-03T03:35:47;18.60;;;7.87;;
40695;SDS011;40425;51.102;17.208;2023-02-03T03:41:02;17.17;;;7.87;;
40695;SDS011;40425;51.102;17.208;2023-02-03T03:46:18;15.70;;;6.83;;
40695;SDS011;40425;51.102;17.208;2023-02-03T03:51:26;15.47;;;5.97;;
40695;SDS011;40425;51.102;17.208;2023-02-03T03:56:40;15.57;;;6.63;;
40695;SDS011;40425;51.102;17.208;2023-02-03T04:02:04;14.20;;;6.40;;
40695;SDS011;40425;51.102;17.208;2023-02-03T04:07:05;13.80;;;5.73;;
40695;SDS011;40425;51.102;17.208;2023-02-03T04:12:08;10.73;;;5.23;;
40695;SDS011;40425;51.102;17.208;2023-02-03T04:17:18;10.00;;;4.83;;
40695;SDS011;40425;51.102;17.208;2023-02-03T04:22:19;14.27;;;5.37;;
40695;SDS011;40425;51.102;17.208;2023-02-03T04:27:20;9.37;;;5.97;;
40695;SDS011;40425;51.102;17.208;2023-02-03T04:32:21;9.30;;;4.23;;
40695;SDS011;40425;51.102;17.208;2023-02-03T04:37:22;9.67;;;4.20;;
40695;SDS011;40425;51.102;17.208;2023-02-03T04:42:25;16.03;;;3.87;;
40695;SDS011;40425;51.102;17.208;2023-02-03T04:47:27;14.10;;;4.73;;
40695;SDS011;40425;51.102;17.208;2023-02-03T04:52:27;12.43;;;4.23;;
40695;SDS011;40425;51.102;17.208;2023-02-03T04:57:29;16.23;;;5.20;;
40695;SDS011;40425;51.102;17.208;2023-02-03T05:02:30;10.10;;;4.57;;
40695;SDS011;40425;51.102;17.208;2023-02-03T05:07:30;11.57;;;4.33;;
40695;SDS011;40425;51.102;17.208;2023-02-03T05:12:31;12.23;;;4.13;;
40695;SDS011;40425;51.102;17.208;2023-02-03T05:17:32;11.63;;;4.20;;
40695;SDS011;40425;51.102;17.208;2023-02-03T05:22:37;50.43;;;21.77;;
40695;SDS011;40425;51.102;17.208;2023-02-03T05:27:39;24.63;;;10.73;;
40695;SDS011;40425;51.102;17.208;2023-02-03T05:32:40;32.67;;;14.00;;
40695;SDS011;40425;51.102;17.208;2023-02-03T05:37:44;18.87;;;8.63;;
40695;SDS011;40425;51.102;17.208;2023-02-03T05:42:48;27.47;;;11.90;;
40695;SDS011;40425;51.102;17.208;2023-02-03T05:47:49;23.90;;;11.03;;
40695;SDS011;40425;51.102;17.208;2023-02-03T05:52:50;13.23;;;5.80;;
40695;SDS011;40425;51.102;17.208;2023-02-03T05:57:51;16.40;;;7.50;;
40695;SDS011;40425;51.102;17.208;2023-02-03T06:02:56;30.67;;;13.17;;
40695;SDS011;40425;51.102;17.208;2023-02-03T06:07:58;27.27;;;11.27;;
40695;SDS011;40425;51.102;17.208;2023-02-03T06:13:06;51.50;;;19.00;;
40695;SDS011;40425;51.102;17.208;2023-02-03T06:18:15;29.20;;;11.40;;
40695;SDS011;40425;51.102;17.208;2023-02-03T06:23:15;30.57;;;11.93;;
40695;SDS011;40425;51.102;17.208;2023-02-03T06:28:18;36.53;;;13.00;;
40695;SDS011;40425;51.102;17.208;2023-02-03T06:33:19;34.93;;;14.77;;
40695;SDS011;40425;51.102;17.208;2023-02-03T06:38:20;24.93;;;9.53;;
40695;SDS011;40425;51.102;17.208;2023-02-03T06:43:21;17.00;;;6.87;;
40695;SDS011;40425;51.102;17.208;2023-02-03T06:48:21;25.63;;;10.60;;
40695;SDS011;40425;51.102;17.208;2023-02-03T06:53:22;19.03;;;9.77;;
40695;SDS011;40425;51.102;17.208;2023-02-03T06:58:23;21.70;;;10.03;;
40695;SDS011;40425;51.102;17.208;2023-02-03T07:03:24;24.67;;;11.43;;
40695;SDS011;40425;51.102;17.208;2023-02-03T07:08:25;22.30;;;10.70;;
40695;SDS011;40425;51.102;17.208;2023-02-03T07:13:26;18.93;;;10.50;;
40695;SDS011;40425;51.102;17.208;2023-02-03T07:18:27;12.57;;;7.23;;
40695;SDS011;40425;51.102;17.208;2023-02-03T07:23:29;10.20;;;5.90;;
40695;SDS011;40425;51.102;17.208;2023-02-03T07:28:31;10.57;;;4.97;;
40695;SDS011;40425;51.102;17.208;2023-02-03T07:33:33;6.70;;;3.93;;
40695;SDS011;40425;51.102;17.208;2023-02-03T07:38:34;9.43;;;5.47;;
40695;SDS011;40425;51.102;17.208;2023-02-03T07:43:37;7.03;;;4.40;;
40695;SDS011;40425;51.102;17.208;2023-02-03T07:48:37;7.47;;;4.67;;
40695;SDS011;40425;51.102;17.208;2023-02-03T07:53:38;8.57;;;5.10;;
40695;SDS011;40425;51.102;17.208;2023-02-03T07:58:39;8.60;;;3.87;;
40695;SDS011;40425;51.102;17.208;2023-02-03T08:03:40;9.57;;;4.67;;
40695;SDS011;40425;51.102;17.208;2023-02-03T08:08:42;5.67;;;3.43;;
40695;SDS011;40425;51.102;17.208;2023-02-03T08:13:43;5.93;;;3.10;;
40695;SDS011;40425;51.102;17.208;2023-02-03T08:18:44;4.90;;;2.97;;
40695;SDS011;40425;51.102;17.208;2023-02-03T08:23:45;5.80;;;2.97;;
40695;SDS011;40425;51.102;17.208;2023-02-03T08:28:49;4.80;;;2.07;;
40695;SDS011;40425;51.102;17.208;2023-02-03T08:33:50;3.93;;;2.40;;
40695;SDS011;40425;51.102;17.208;2023-02-03T08:38:51;5.97;;;2.63;;
40695;SDS011;40425;51.102;17.208;2023-02-03T08:43:52;6.00;;;3.20;;
40695;SDS011;40425;51.102;17.208;2023-02-03T08:48:54;7.33;;;3.90;;
40695;SDS011;40425;51.102;17.208;2023-02-03T08:53:56;5.93;;;3.60;;
40695;SDS011;40425;51.102;17.208;2023-02-03T08:58:57;4.73;;;2.80;;
40695;SDS011;40425;51.102;17.208;2023-02-03T09:03:58;7.07;;;3.90;;
40695;SDS011;40425;51.102;17.208;2023-02-03T09:09:01;9.20;;;4.43;;
40695;SDS011;40425;51.102;17.208;2023-02-03T09:14:02;6.87;;;3.30;;
40695;SDS011;40425;51.102;17.208;2023-02-03T09:19:03;8.97;;;5.43;;
40695;SDS011;40425;51.102;17.208;2023-02-03T09:24:05;11.13;;;7.00;;
40695;SDS011;40425;51.102;17.208;2023-02-03T09:29:07;11.37;;;5.80;;
40695;SDS011;40425;51.102;17.208;2023-02-03T09:34:09;9.40;;;5.77;;
40695;SDS011;40425;51.102;17.208;2023-02-03T09:39:09;6.73;;;4.13;;
40695;SDS011;40425;51.102;17.208;2023-02-03T09:44:20;6.87;;;4.53;;
40695;SDS011;40425;51.102;17.208;2023-02-03T09:49:39;7.47;;;4.00;;
40695;SDS011;40425;51.102;17.208;2023-02-03T09:55:03;6.07;;;2.80;;
40695;SDS011;40425;51.102;17.208;2023-02-03T10:00:13;5.93;;;2.57;;
40695;SDS011;40425;51.102;17.208;2023-02-03T10:05:42;5.67;;;3.30;;
40695;SDS011;40425;51.102;17.208;2023-02-03T10:21:50;10.80;;;4.90;;
40695;SDS011;40425;51.102;17.208;2023-02-03T10:26:55;8.23;;;4.93;;
40695;SDS011;40425;51.102;17.208;2023-02-03T10:31:57;8.13;;;5.30;;
40695;SDS011;40425;51.102;17.208;2023-02-03T10:37:02;8.63;;;4.80;;
40695;SDS011;40425;51.102;17.208;2023-02-03T10:42:30;12.00;;;5.80;;
40695;SDS011;40425;51.102;17.208;2023-02-03T10:47:52;12.23;;;7.13;;
40695;SDS011;40425;51.102;17.208;2023-02-03T10:52:59;19.13;;;8.80;;
40695;SDS011;40425;51.102;17.208;2023-02-03T10:58:24;11.87;;;6.00;;
40695;SDS011;40425;51.102;17.208;2023-02-03T11:03:29;10.70;;;5.63;;
40695;SDS011;40425;51.102;17.208;2023-02-03T11:08:30;7.27;;;4.97;;
40695;SDS011;40425;51.102;17.208;2023-02-03T11:13:32;7.67;;;4.60;;
40695;SDS011;40425;51.102;17.208;2023-02-03T11:28:56;8.63;;;4.07;;
40695;SDS011;40425;51.102;17.208;2023-02-03T11:34:01;8.27;;;3.87;;
40695;SDS011;40425;51.102;17.208;2023-02-03T11:39:15;6.67;;;3.07;;
40695;SDS011;40425;51.102;17.208;2023-02-03T11:44:24;6.63;;;2.53;;
40695;SDS011;40425;51.102;17.208;2023-02-03T12:10:34;9.10;;;3.30;;
40695;SDS011;40425;51.102;17.208;2023-02-03T12:16:01;4.53;;;2.27;;
40695;SDS011;40425;51.102;17.208;2023-02-03T12:36:48;9.67;;;4.33;;
40695;SDS011;40425;51.102;17.208;2023-02-03T12:42:38;5.57;;;2.10;;
40695;SDS011;40425;51.102;17.208;2023-02-03T12:47:46;3.40;;;1.30;;
40695;SDS011;40425;51.102;17.208;2023-02-03T12:57:50;1.90;;;0.70;;
40695;SDS011;40425;51.102;17.208;2023-02-03T13:08:33;2.87;;;0.73;;
40695;SDS011;40425;51.102;17.208;2023-02-03T13:14:26;2.63;;;0.90;;
40695;SDS011;40425;51.102;17.208;2023-02-03T13:19:26;1.40;;;0.57;;
40695;SDS011;40425;51.102;17.208;2023-02-03T13:24:33;1.67;;;0.50;;
40695;SDS011;40425;51.102;17.208;2023-02-03T13:40:21;1.83;;;0.50;;
40695;SDS011;40425;51.102;17.208;2023-02-03T13:45:50;4.50;;;0.77;;
40695;SDS011;40425;51.102;17.208;2023-02-03T13:51:53;1.70;;;0.80;;
40695;SDS011;40425;51.102;17.208;2023-02-03T13:56:34;1.37;;;0.50;;
40695;SDS011;40425;51.102;17.208;2023-02-03T14:01:36;2.03;;;0.40;;
40695;SDS011;40425;51.102;17.208;2023-02-03T14:11:40;1.33;;;0.20;;
40695;SDS011;40425;51.102;17.208;2023-02-03T14:16:48;1.40;;;0.33;;
40695;SDS011;40425;51.102;17.208;2023-02-03T14:21:51;1.10;;;0.30;;
40695;SDS011;40425;51.102;17.208;2023-02-03T14:26:56;4.43;;;0.50;;
40695;SDS011;40425;51.102;17.208;2023-02-03T14:32:00;2.07;;;0.40;;
40695;SDS011;40425;51.102;17.208;2023-02-03T14:37:08;3.33;;;0.40;;
40695;SDS011;40425;51.102;17.208;2023-02-03T14:42:16;4.43;;;0.50;;
40695;SDS011;40425;51.102;17.208;2023-02-03T14:58:20;4.03;;;0.70;;
40695;SDS011;40425;51.102;17.208;2023-02-03T15:04:18;7.90;;;1.53;;
40695;SDS011;40425;51.102;17.208;2023-02-03T15:09:19;7.20;;;0.90;;
40695;SDS011;40425;51.102;17.208;2023-02-03T15:14:38;7.93;;;1.20;;
40695;SDS011;40425;51.102;17.208;2023-02-03T15:19:41;7.37;;;1.40;;
40695;SDS011;40425;51.102;17.208;2023-02-03T15:24:42;13.67;;;1.40;;
40695;SDS011;40425;51.102;17.208;2023-02-03T15:29:44;8.27;;;1.50;;
40695;SDS011;40425;51.102;17.208;2023-02-03T15:34:48;10.30;;;1.50;;
40695;SDS011;40425;51.102;17.208;2023-02-03T15:45:26;7.90;;;1.60;;
40695;SDS011;40425;51.102;17.208;2023-02-03T15:50:30;14.00;;;2.27;;
40695;SDS011;40425;51.102;17.208;2023-02-03T15:55:38;13.43;;;2.00;;
40695;SDS011;40425;51.102;17.208;2023-02-03T16:00:43;17.90;;;3.17;;
40695;SDS011;40425;51.102;17.208;2023-02-03T16:05:49;12.50;;;1.43;;
40695;SDS011;40425;51.102;17.208;2023-02-03T16:10:51;10.00;;;1.90;;
40695;SDS011;40425;51.102;17.208;2023-02-03T16:15:56;8.37;;;1.53;;
40695;SDS011;40425;51.102;17.208;2023-02-03T16:21:05;11.77;;;1.97;;
40695;SDS011;40425;51.102;17.208;2023-02-03T16:31:18;10.57;;;1.57;;
40695;SDS011;40425;51.102;17.208;2023-02-03T16:36:40;12.73;;;1.63;;
40695;SDS011;40425;51.102;17.208;2023-02-03T16:42:06;8.37;;;1.13;;
40695;SDS011;40425;51.102;17.208;2023-02-03T16:47:32;6.50;;;0.63;;
40695;SDS011;40425;51.102;17.208;2023-02-03T16:52:51;13.10;;;1.37;;
40695;SDS011;40425;51.102;17.208;2023-02-03T16:57:52;12.20;;;2.23;;
40695;SDS011;40425;51.102;17.208;2023-02-03T17:02:52;17.00;;;1.40;;
40695;SDS011;40425;51.102;17.208;2023-02-03T17:07:53;14.90;;;2.57;;
40695;SDS011;40425;51.102;17.208;2023-02-03T17:12:54;17.03;;;3.10;;
40695;SDS011;40425;51.102;17.208;2023-02-03T17:17:56;20.03;;;2.97;;
40695;SDS011;40425;51.102;17.208;2023-02-03T17:22:58;13.43;;;3.40;;
40695;SDS011;40425;51.102;17.208;2023-02-03T17:27:58;22.90;;;2.63;;
40695;SDS011;40425;51.102;17.208;2023-02-03T17:33:00;21.10;;;3.80;;
40695;SDS011;40425;51.102;17.208;2023-02-03T17:38:02;25.03;;;3.47;;
40695;SDS011;40425;51.102;17.208;2023-02-03T17:43:04;24.90;;;4.93;;
40695;SDS011;40425;51.102;17.208;2023-02-03T17:48:05;23.20;;;5.17;;
40695;SDS011;40425;51.102;17.208;2023-02-03T17:53:06;22.93;;;5.00;;
40695;SDS011;40425;51.102;17.208;2023-02-03T17:58:07;23.40;;;3.20;;
40695;SDS011;40425;51.102;17.208;2023-02-03T18:03:08;26.33;;;2.67;;
40695;SDS011;40425;51.102;17.208;2023-02-03T18:08:09;25.27;;;4.20;;
40695;SDS011;40425;51.102;17.208;2023-02-03T18:13:10;28.63;;;4.07;;
40695;SDS011;40425;51.102;17.208;2023-02-03T18:18:11;23.47;;;3.73;;
40695;SDS011;40425;51.102;17.208;2023-02-03T18:23:12;21.50;;;2.73;;
40695;SDS011;40425;51.102;17.208;2023-02-03T18:28:13;25.00;;;3.40;;
40695;SDS011;40425;51.102;17.208;2023-02-03T18:33:15;27.47;;;3.23;;
40695;SDS011;40425;51.102;17.208;2023-02-03T18:38:17;31.70;;;4.63;;
40695;SDS011;40425;51.102;17.208;2023-02-03T18:43:19;24.93;;;3.40;;
40695;SDS011;40425;51.102;17.208;2023-02-03T18:48:21;21.90;;;3.90;;
40695;SDS011;40425;51.102;17.208;2023-02-03T18:53:23;26.50;;;3.67;;
40695;SDS011;40425;51.102;17.208;2023-02-03T18:58:27;18.53;;;2.93;;
40695;SDS011;40425;51.102;17.208;2023-02-03T19:03:28;27.50;;;3.77;;
40695;SDS011;40425;51.102;17.208;2023-02-03T19:08:29;19.80;;;2.87;;
40695;SDS011;40425;51.102;17.208;2023-02-03T19:13:30;21.17;;;2.40;;
40695;SDS011;40425;51.102;17.208;2023-02-03T19:18:32;20.17;;;3.20;;
40695;SDS011;40425;51.102;17.208;2023-02-03T19:23:37;23.67;;;2.83;;
40695;SDS011;40425;51.102;17.208;2023-02-03T19:28:39;20.13;;;3.13;;
40695;SDS011;40425;51.102;17.208;2023-02-03T19:33:41;20.10;;;2.27;;
40695;SDS011;40425;51.102;17.208;2023-02-03T19:38:43;18.93;;;3.23;;
40695;SDS011;40425;51.102;17.208;2023-02-03T19:43:44;31.20;;;3.57;;
40695;SDS011;40425;51.102;17.208;2023-02-03T19:48:47;19.93;;;2.50;;
40695;SDS011;40425;51.102;17.208;2023-02-03T19:53:49;20.63;;;2.07;;
40695;SDS011;40425;51.102;17.208;2023-02-03T19:58:50;22.13;;;2.27;;
40695;SDS011;40425;51.102;17.208;2023-02-03T20:03:53;15.50;;;1.60;;
40695;SDS011;40425;51.102;17.208;2023-02-03T20:09:00;17.57;;;2.47;;
40695;SDS011;40425;51.102;17.208;2023-02-03T20:14:05;13.47;;;2.23;;
40695;SDS011;40425;51.102;17.208;2023-02-03T20:19:07;21.27;;;2.40;;
40695;SDS011;40425;51.102;17.208;2023-02-03T20:24:10;18.27;;;3.17;;
40695;SDS011;40425;51.102;17.208;2023-02-03T20:29:12;25.27;;;3.13;;
40695;SDS011;40425;51.102;17.208;2023-02-03T20:34:15;19.23;;;2.73;;
40695;SDS011;40425;51.102;17.208;2023-02-03T20:39:20;19.53;;;4.27;;
40695;SDS011;40425;51.102;17.208;2023-02-03T20:44:24;22.97;;;3.13;;
40695;SDS011;40425;51.102;17.208;2023-02-03T20:49:27;21.27;;;3.10;;
40695;SDS011;40425;51.102;17.208;2023-02-03T20:54:29;13.23;;;2.27;;
40695;SDS011;40425;51.102;17.208;2023-02-03T20:59:30;16.40;;;3.17;;
40695;SDS011;40425;51.102;17.208;2023-02-03T21:04:31;18.40;;;2.27;;
40695;SDS011;40425;51.102;17.208;2023-02-03T21:09:52;15.83;;;2.73;;
40695;SDS011;40425;51.102;17.208;2023-02-03T21:14:53;12.83;;;2.63;;
40695;SDS011;40425;51.102;17.208;2023-02-03T21:19:55;14.07;;;2.13;;
40695;SDS011;40425;51.102;17.208;2023-02-03T21:24:57;16.10;;;2.43;;
40695;SDS011;40425;51.102;17.208;2023-02-03T21:30:02;10.13;;;2.13;;
40695;SDS011;40425;51.102;17.208;2023-02-03T21:35:28;20.43;;;2.97;;
40695;SDS011;40425;51.102;17.208;2023-02-03T21:40:33;16.57;;;2.27;;
40695;SDS011;40425;51.102;17.208;2023-02-03T21:45:37;15.47;;;2.17;;
40695;SDS011;40425;51.102;17.208;2023-02-03T21:50:41;19.90;;;2.03;;
40695;SDS011;40425;51.102;17.208;2023-02-03T21:55:45;15.17;;;2.47;;
40695;SDS011;40425;51.102;17.208;2023-02-03T22:00:47;14.70;;;2.50;;
40695;SDS011;40425;51.102;17.208;2023-02-03T22:05:49;13.00;;;2.57;;
40695;SDS011;40425;51.102;17.208;2023-02-03T22:10:50;19.60;;;3.20;;
40695;SDS011;40425;51.102;17.208;2023-02-03T22:15:51;10.40;;;1.50;;
40695;SDS011;40425;51.102;17.208;2023-02-03T22:20:52;13.60;;;1.33;;
40695;SDS011;40425;51.102;17.208;2023-02-03T22:25:53;9.90;;;1.27;;
40695;SDS011;40425;51.102;17.208;2023-02-03T22:30:54;13.63;;;1.30;;
40695;SDS011;40425;51.102;17.208;2023-02-03T22:35:55;9.50;;;1.30;;
40695;SDS011;40425;51.102;17.208;2023-02-03T22:40:56;17.03;;;1.87;;
40695;SDS011;40425;51.102;17.208;2023-02-03T22:45:58;11.23;;;1.10;;
40695;SDS011;40425;51.102;17.208;2023-02-03T22:51:00;12.73;;;0.90;;
40695;SDS011;40425;51.102;17.208;2023-02-03T22:56:01;5.87;;;0.83;;
40695;SDS011;40425;51.102;17.208;2023-02-03T23:01:02;7.77;;;0.80;;
40695;SDS011;40425;51.102;17.208;2023-02-03T23:06:03;9.70;;;1.33;;
40695;SDS011;40425;51.102;17.208;2023-02-03T23:11:04;6.27;;;0.83;;
40695;SDS011;40425;51.102;17.208;2023-02-03T23:16:05;5.63;;;0.60;;
40695;SDS011;40425;51.102;17.208;2023-02-03T23:21:06;6.63;;;0.47;;
40695;SDS011;40425;51.102;17.208;2023-02-03T23:26:07;8.47;;;0.50;;
40695;SDS011;40425;51.102;17.208;2023-02-03T23:31:08;10.37;;;0.83;;
40695;SDS011;40425;51.102;17.208;2023-02-03T23:36:09;7.17;;;0.67;;
40695;SDS011;40425;51.102;17.208;2023-02-03T23:41:09;7.83;;;1.03;;
40695;SDS011;40425;51.102;17.208;2023-02-03T23:46:10;8.97;;;0.60;;
40695;SDS011;40425;51.102;17.208;2023-02-03T23:51:12;3.00;;;0.30;;
40695;SDS011;40425;51.102;17.208;2023-02-03T23:56:13;2.83;;;0.20;;
